sensor_id;sensor_type;location;lat;lon;timestamp;temperature;humidity
11003;DHT22;5554;55.796;13.090;2022-10-13T00:01:06;10.30;99.90
11003;DHT22;5554;55.796;13.090;2022-10-13T00:03:33;10.30;99.90
11003;DHT22;5554;55.796;13.090;2022-10-13T00:05:59;10.20;99.90
11003;DHT22;5554;55.796;13.090;2022-10-13T00:08:26;10.10;99.90
11003;DHT22;5554;55.796;13.090;2022-10-13T00:10:55;10.10;99.90
11003;DHT22;5554;55.796;13.090;2022-10-13T00:13:22;10.10;99.90
11003;DHT22;5554;55.796;13.090;2022-10-13T00:15:49;10.10;99.90
11003;DHT22;5554;55.796;13.090;2022-10-13T00:18:15;10.10;99.90
11003;DHT22;5554;55.796;13.090;2022-10-13T00:20:43;10.00;99.90
11003;DHT22;5554;55.796;13.090;2022-10-13T00:23:10;10.00;99.90
11003;DHT22;5554;55.796;13.090;2022-10-13T00:25:41;10.00;99.90
11003;DHT22;5554;55.796;13.090;2022-10-13T00:28:10;10.00;99.90
11003;DHT22;5554;55.796;13.090;2022-10-13T00:30:37;10.00;99.90
11003;DHT22;5554;55.796;13.090;2022-10-13T00:33:04;10.00;99.90
11003;DHT22;5554;55.796;13.090;2022-10-13T00:35:31;10.00;99.90
11003;DHT22;5554;55.796;13.090;2022-10-13T00:37:57;9.90;99.90
11003;DHT22;5554;55.796;13.090;2022-10-13T00:40:24;9.80;99.90
11003;DHT22;5554;55.796;13.090;2022-10-13T00:42:50;9.80;99.90
11003;DHT22;5554;55.796;13.090;2022-10-13T00:45:23;9.70;99.90
11003;DHT22;5554;55.796;13.090;2022-10-13T00:47:50;9.70;99.90
11003;DHT22;5554;55.796;13.090;2022-10-13T00:50:20;9.70;99.90
11003;DHT22;5554;55.796;13.090;2022-10-13T00:52:48;9.70;99.90
11003;DHT22;5554;55.796;13.090;2022-10-13T00:55:15;9.80;99.90
11003;DHT22;5554;55.796;13.090;2022-10-13T00:57:42;9.70;99.90
11003;DHT22;5554;55.796;13.090;2022-10-13T01:00:11;9.70;99.90
11003;DHT22;5554;55.796;13.090;2022-10-13T01:02:39;9.60;99.90
11003;DHT22;5554;55.796;13.090;2022-10-13T01:05:06;9.60;99.90
11003;DHT22;5554;55.796;13.090;2022-10-13T01:07:34;9.60;99.90
11003;DHT22;5554;55.796;13.090;2022-10-13T01:10:01;9.50;99.90
11003;DHT22;5554;55.796;13.090;2022-10-13T01:12:31;9.50;99.90
11003;DHT22;5554;55.796;13.090;2022-10-13T01:15:01;9.40;99.90
11003;DHT22;5554;55.796;13.090;2022-10-13T01:17:30;9.30;99.90
11003;DHT22;5554;55.796;13.090;2022-10-13T01:20:25;9.30;99.90
11003;DHT22;5554;55.796;13.090;2022-10-13T01:22:59;9.30;99.90
11003;DHT22;5554;55.796;13.090;2022-10-13T01:25:32;9.20;99.90
11003;DHT22;5554;55.796;13.090;2022-10-13T01:28:08;9.10;99.90
11003;DHT22;5554;55.796;13.090;2022-10-13T01:30:42;9.00;99.90
11003;DHT22;5554;55.796;13.090;2022-10-13T01:33:13;9.00;99.90
11003;DHT22;5554;55.796;13.090;2022-10-13T01:35:45;9.00;99.90
11003;DHT22;5554;55.796;13.090;2022-10-13T01:38:17;9.00;99.90
11003;DHT22;5554;55.796;13.090;2022-10-13T01:40:48;8.90;99.90
11003;DHT22;5554;55.796;13.090;2022-10-13T01:43:18;8.90;99.90
11003;DHT22;5554;55.796;13.090;2022-10-13T01:45:49;8.90;99.90
11003;DHT22;5554;55.796;13.090;2022-10-13T01:48:19;8.90;99.90
11003;DHT22;5554;55.796;13.090;2022-10-13T01:50:46;8.90;99.90
11003;DHT22;5554;55.796;13.090;2022-10-13T01:53:13;8.80;99.90
11003;DHT22;5554;55.796;13.090;2022-10-13T01:55:49;8.80;99.90
11003;DHT22;5554;55.796;13.090;2022-10-13T01:58:16;8.80;99.90
11003;DHT22;5554;55.796;13.090;2022-10-13T02:00:44;8.80;99.90
11003;DHT22;5554;55.796;13.090;2022-10-13T02:03:16;8.70;99.90
11003;DHT22;5554;55.796;13.090;2022-10-13T02:05:46;8.70;99.90
11003;DHT22;5554;55.796;13.090;2022-10-13T02:08:16;8.70;99.90
11003;DHT22;5554;55.796;13.090;2022-10-13T02:10:45;8.70;99.90
11003;DHT22;5554;55.796;13.090;2022-10-13T02:13:16;8.80;99.90
11003;DHT22;5554;55.796;13.090;2022-10-13T02:15:45;8.70;99.90
11003;DHT22;5554;55.796;13.090;2022-10-13T02:18:14;8.60;99.90
11003;DHT22;5554;55.796;13.090;2022-10-13T02:20:42;8.70;99.90
11003;DHT22;5554;55.796;13.090;2022-10-13T02:23:11;8.70;99.90
11003;DHT22;5554;55.796;13.090;2022-10-13T02:25:38;8.70;99.90
11003;DHT22;5554;55.796;13.090;2022-10-13T02:28:05;8.70;99.90
11003;DHT22;5554;55.796;13.090;2022-10-13T02:30:32;8.60;99.90
11003;DHT22;5554;55.796;13.090;2022-10-13T02:32:59;8.70;99.90
11003;DHT22;5554;55.796;13.090;2022-10-13T02:35:27;8.80;99.90
11003;DHT22;5554;55.796;13.090;2022-10-13T02:37:55;8.80;99.90
11003;DHT22;5554;55.796;13.090;2022-10-13T02:40:22;8.80;99.90
11003;DHT22;5554;55.796;13.090;2022-10-13T02:42:48;8.80;99.90
11003;DHT22;5554;55.796;13.090;2022-10-13T02:45:15;8.80;99.90
11003;DHT22;5554;55.796;13.090;2022-10-13T02:47:42;8.80;99.90
11003;DHT22;5554;55.796;13.090;2022-10-13T02:50:08;8.90;99.90
11003;DHT22;5554;55.796;13.090;2022-10-13T02:52:36;8.90;99.90
11003;DHT22;5554;55.796;13.090;2022-10-13T02:55:03;8.90;99.90
11003;DHT22;5554;55.796;13.090;2022-10-13T02:57:30;8.90;99.90
11003;DHT22;5554;55.796;13.090;2022-10-13T02:59:57;9.00;99.90
11003;DHT22;5554;55.796;13.090;2022-10-13T03:02:24;9.00;99.90
11003;DHT22;5554;55.796;13.090;2022-10-13T03:04:51;9.00;99.90
11003;DHT22;5554;55.796;13.090;2022-10-13T03:07:18;9.00;99.90
11003;DHT22;5554;55.796;13.090;2022-10-13T03:09:46;9.00;99.90
11003;DHT22;5554;55.796;13.090;2022-10-13T03:12:13;9.00;99.90
11003;DHT22;5554;55.796;13.090;2022-10-13T03:14:39;9.00;99.90
11003;DHT22;5554;55.796;13.090;2022-10-13T03:17:06;9.00;99.90
11003;DHT22;5554;55.796;13.090;2022-10-13T03:19:32;9.10;99.90
11003;DHT22;5554;55.796;13.090;2022-10-13T03:21:59;9.00;99.90
11003;DHT22;5554;55.796;13.090;2022-10-13T03:24:26;9.00;99.90
11003;DHT22;5554;55.796;13.090;2022-10-13T03:26:54;9.00;99.90
11003;DHT22;5554;55.796;13.090;2022-10-13T03:29:20;9.00;99.90
11003;DHT22;5554;55.796;13.090;2022-10-13T03:31:47;9.00;99.90
11003;DHT22;5554;55.796;13.090;2022-10-13T03:34:15;9.00;99.90
11003;DHT22;5554;55.796;13.090;2022-10-13T03:36:43;9.10;99.90
11003;DHT22;5554;55.796;13.090;2022-10-13T03:39:10;9.00;99.90
11003;DHT22;5554;55.796;13.090;2022-10-13T03:41:37;9.00;99.90
11003;DHT22;5554;55.796;13.090;2022-10-13T03:44:05;9.00;99.90
11003;DHT22;5554;55.796;13.090;2022-10-13T03:46:32;9.00;99.90
11003;DHT22;5554;55.796;13.090;2022-10-13T03:48:59;9.00;99.90
11003;DHT22;5554;55.796;13.090;2022-10-13T03:51:25;9.00;99.90
11003;DHT22;5554;55.796;13.090;2022-10-13T03:53:52;9.00;99.90
11003;DHT22;5554;55.796;13.090;2022-10-13T03:56:20;8.90;99.90
11003;DHT22;5554;55.796;13.090;2022-10-13T03:58:47;8.90;99.90
11003;DHT22;5554;55.796;13.090;2022-10-13T04:01:19;8.90;99.90
11003;DHT22;5554;55.796;13.090;2022-10-13T04:03:46;8.80;99.90
11003;DHT22;5554;55.796;13.090;2022-10-13T04:06:13;8.80;99.90
11003;DHT22;5554;55.796;13.090;2022-10-13T04:08:39;8.80;99.90
11003;DHT22;5554;55.796;13.090;2022-10-13T04:11:06;8.80;99.90
11003;DHT22;5554;55.796;13.090;2022-10-13T04:13:34;8.80;99.90
11003;DHT22;5554;55.796;13.090;2022-10-13T04:16:01;8.80;99.90
11003;DHT22;5554;55.796;13.090;2022-10-13T04:18:29;8.80;99.90
11003;DHT22;5554;55.796;13.090;2022-10-13T04:20:56;8.70;99.90
11003;DHT22;5554;55.796;13.090;2022-10-13T04:23:22;8.70;99.90
11003;DHT22;5554;55.796;13.090;2022-10-13T04:25:49;8.80;99.90
11003;DHT22;5554;55.796;13.090;2022-10-13T04:28:16;8.80;99.90
11003;DHT22;5554;55.796;13.090;2022-10-13T04:30:42;8.90;99.90
11003;DHT22;5554;55.796;13.090;2022-10-13T04:33:09;8.80;99.90
11003;DHT22;5554;55.796;13.090;2022-10-13T04:35:39;8.90;99.90
11003;DHT22;5554;55.796;13.090;2022-10-13T04:38:06;8.90;99.90
11003;DHT22;5554;55.796;13.090;2022-10-13T04:40:33;8.80;99.90
11003;DHT22;5554;55.796;13.090;2022-10-13T04:43:00;8.80;99.90
11003;DHT22;5554;55.796;13.090;2022-10-13T04:45:27;8.80;99.90
11003;DHT22;5554;55.796;13.090;2022-10-13T04:47:53;8.80;99.90
11003;DHT22;5554;55.796;13.090;2022-10-13T04:50:20;8.90;99.90
11003;DHT22;5554;55.796;13.090;2022-10-13T04:52:48;8.90;99.90
11003;DHT22;5554;55.796;13.090;2022-10-13T04:55:15;8.90;99.90
11003;DHT22;5554;55.796;13.090;2022-10-13T04:57:41;8.90;99.90
11003;DHT22;5554;55.796;13.090;2022-10-13T05:00:08;8.90;99.90
11003;DHT22;5554;55.796;13.090;2022-10-13T05:02:36;8.90;99.90
11003;DHT22;5554;55.796;13.090;2022-10-13T05:05:03;8.90;99.90
11003;DHT22;5554;55.796;13.090;2022-10-13T05:07:29;8.90;99.90
11003;DHT22;5554;55.796;13.090;2022-10-13T05:09:58;9.00;99.90
11003;DHT22;5554;55.796;13.090;2022-10-13T05:12:24;9.00;99.90
11003;DHT22;5554;55.796;13.090;2022-10-13T05:14:51;9.00;99.90
11003;DHT22;5554;55.796;13.090;2022-10-13T05:17:18;9.10;99.90
11003;DHT22;5554;55.796;13.090;2022-10-13T05:19:44;9.10;99.90
11003;DHT22;5554;55.796;13.090;2022-10-13T05:22:11;9.10;99.90
11003;DHT22;5554;55.796;13.090;2022-10-13T05:24:38;9.10;99.90
11003;DHT22;5554;55.796;13.090;2022-10-13T05:27:08;9.10;99.90
11003;DHT22;5554;55.796;13.090;2022-10-13T05:29:34;9.10;99.90
11003;DHT22;5554;55.796;13.090;2022-10-13T05:32:01;9.10;99.90
11003;DHT22;5554;55.796;13.090;2022-10-13T05:34:28;9.10;99.90
11003;DHT22;5554;55.796;13.090;2022-10-13T05:36:55;9.20;99.90
11003;DHT22;5554;55.796;13.090;2022-10-13T05:39:21;9.20;99.90
11003;DHT22;5554;55.796;13.090;2022-10-13T05:41:48;9.20;99.90
11003;DHT22;5554;55.796;13.090;2022-10-13T05:44:17;9.20;99.90
11003;DHT22;5554;55.796;13.090;2022-10-13T05:46:43;9.30;99.90
11003;DHT22;5554;55.796;13.090;2022-10-13T05:49:10;9.30;99.90
11003;DHT22;5554;55.796;13.090;2022-10-13T05:51:37;9.30;99.90
11003;DHT22;5554;55.796;13.090;2022-10-13T05:54:06;9.30;99.90
11003;DHT22;5554;55.796;13.090;2022-10-13T05:56:34;9.40;99.90
11003;DHT22;5554;55.796;13.090;2022-10-13T05:59:03;9.40;99.90
11003;DHT22;5554;55.796;13.090;2022-10-13T06:01:32;9.40;99.90
11003;DHT22;5554;55.796;13.090;2022-10-13T06:04:00;9.50;99.90
11003;DHT22;5554;55.796;13.090;2022-10-13T06:06:28;9.50;99.90
11003;DHT22;5554;55.796;13.090;2022-10-13T06:08:54;9.50;99.90
11003;DHT22;5554;55.796;13.090;2022-10-13T06:11:21;9.50;99.90
11003;DHT22;5554;55.796;13.090;2022-10-13T06:13:48;9.60;99.90
11003;DHT22;5554;55.796;13.090;2022-10-13T06:16:14;9.60;99.90
11003;DHT22;5554;55.796;13.090;2022-10-13T06:18:42;9.60;99.90
11003;DHT22;5554;55.796;13.090;2022-10-13T06:21:09;9.60;99.90
11003;DHT22;5554;55.796;13.090;2022-10-13T06:23:36;9.70;99.90
11003;DHT22;5554;55.796;13.090;2022-10-13T06:26:02;9.70;99.90
11003;DHT22;5554;55.796;13.090;2022-10-13T06:28:29;9.70;99.90
11003;DHT22;5554;55.796;13.090;2022-10-13T06:30:55;9.60;99.90
11003;DHT22;5554;55.796;13.090;2022-10-13T06:33:22;9.60;99.90
11003;DHT22;5554;55.796;13.090;2022-10-13T06:35:51;9.60;99.90
11003;DHT22;5554;55.796;13.090;2022-10-13T06:38:18;9.60;99.90
11003;DHT22;5554;55.796;13.090;2022-10-13T06:40:44;9.60;99.90
11003;DHT22;5554;55.796;13.090;2022-10-13T06:43:11;9.60;99.90
11003;DHT22;5554;55.796;13.090;2022-10-13T06:45:38;9.60;99.90
11003;DHT22;5554;55.796;13.090;2022-10-13T06:48:04;9.60;99.90
11003;DHT22;5554;55.796;13.090;2022-10-13T06:50:31;9.60;99.90
11003;DHT22;5554;55.796;13.090;2022-10-13T06:52:59;9.60;99.90
11003;DHT22;5554;55.796;13.090;2022-10-13T06:55:26;9.60;99.90
11003;DHT22;5554;55.796;13.090;2022-10-13T06:57:52;9.70;99.90
11003;DHT22;5554;55.796;13.090;2022-10-13T07:00:19;9.80;99.90
11003;DHT22;5554;55.796;13.090;2022-10-13T07:02:48;9.80;99.90
11003;DHT22;5554;55.796;13.090;2022-10-13T07:05:14;9.90;99.90
11003;DHT22;5554;55.796;13.090;2022-10-13T07:07:41;10.00;99.90
11003;DHT22;5554;55.796;13.090;2022-10-13T07:10:09;10.10;99.90
11003;DHT22;5554;55.796;13.090;2022-10-13T07:12:36;10.20;99.90
11003;DHT22;5554;55.796;13.090;2022-10-13T07:15:02;10.30;99.90
11003;DHT22;5554;55.796;13.090;2022-10-13T07:17:29;10.40;99.90
11003;DHT22;5554;55.796;13.090;2022-10-13T07:19:56;10.50;99.90
11003;DHT22;5554;55.796;13.090;2022-10-13T07:22:23;10.60;99.90
11003;DHT22;5554;55.796;13.090;2022-10-13T07:24:49;10.80;99.90
11003;DHT22;5554;55.796;13.090;2022-10-13T07:27:17;10.80;99.90
11003;DHT22;5554;55.796;13.090;2022-10-13T07:29:44;10.90;99.90
11003;DHT22;5554;55.796;13.090;2022-10-13T07:32:11;10.90;99.90
11003;DHT22;5554;55.796;13.090;2022-10-13T07:34:37;10.90;99.90
11003;DHT22;5554;55.796;13.090;2022-10-13T07:37:04;10.90;99.90
11003;DHT22;5554;55.796;13.090;2022-10-13T07:39:31;11.00;99.90
11003;DHT22;5554;55.796;13.090;2022-10-13T07:41:57;11.00;99.90
11003;DHT22;5554;55.796;13.090;2022-10-13T07:44:25;11.00;99.90
11003;DHT22;5554;55.796;13.090;2022-10-13T07:46:52;11.10;99.90
11003;DHT22;5554;55.796;13.090;2022-10-13T07:49:19;11.10;99.90
11003;DHT22;5554;55.796;13.090;2022-10-13T07:51:45;11.10;99.90
11003;DHT22;5554;55.796;13.090;2022-10-13T07:54:12;11.10;99.90
11003;DHT22;5554;55.796;13.090;2022-10-13T07:56:39;11.10;99.90
11003;DHT22;5554;55.796;13.090;2022-10-13T07:59:05;11.20;99.90
11003;DHT22;5554;55.796;13.090;2022-10-13T08:01:33;11.20;99.90
11003;DHT22;5554;55.796;13.090;2022-10-13T08:04:00;11.30;99.90
11003;DHT22;5554;55.796;13.090;2022-10-13T08:06:27;11.30;99.90
11003;DHT22;5554;55.796;13.090;2022-10-13T08:08:54;11.40;99.90
11003;DHT22;5554;55.796;13.090;2022-10-13T08:11:22;11.40;99.90
11003;DHT22;5554;55.796;13.090;2022-10-13T08:13:49;11.50;99.90
11003;DHT22;5554;55.796;13.090;2022-10-13T08:16:16;11.50;99.90
11003;DHT22;5554;55.796;13.090;2022-10-13T08:18:44;11.60;99.90
11003;DHT22;5554;55.796;13.090;2022-10-13T08:21:12;11.70;99.90
11003;DHT22;5554;55.796;13.090;2022-10-13T08:23:39;11.70;99.90
11003;DHT22;5554;55.796;13.090;2022-10-13T08:26:11;11.90;99.90
11003;DHT22;5554;55.796;13.090;2022-10-13T08:28:38;12.00;99.90
11003;DHT22;5554;55.796;13.090;2022-10-13T08:31:04;12.20;99.90
11003;DHT22;5554;55.796;13.090;2022-10-13T08:33:31;12.40;99.90
11003;DHT22;5554;55.796;13.090;2022-10-13T08:35:59;12.50;99.90
11003;DHT22;5554;55.796;13.090;2022-10-13T08:38:26;12.50;99.90
11003;DHT22;5554;55.796;13.090;2022-10-13T08:40:52;12.70;99.90
11003;DHT22;5554;55.796;13.090;2022-10-13T08:43:20;12.90;99.90
11003;DHT22;5554;55.796;13.090;2022-10-13T08:45:48;13.00;99.90
11003;DHT22;5554;55.796;13.090;2022-10-13T08:48:16;13.00;99.90
11003;DHT22;5554;55.796;13.090;2022-10-13T08:50:44;13.00;99.90
11003;DHT22;5554;55.796;13.090;2022-10-13T08:53:22;13.00;99.90
11003;DHT22;5554;55.796;13.090;2022-10-13T08:55:51;13.00;99.90
11003;DHT22;5554;55.796;13.090;2022-10-13T08:58:22;13.00;99.90
11003;DHT22;5554;55.796;13.090;2022-10-13T09:00:50;13.10;99.90
11003;DHT22;5554;55.796;13.090;2022-10-13T09:03:19;13.20;99.90
11003;DHT22;5554;55.796;13.090;2022-10-13T09:05:51;13.10;99.90
11003;DHT22;5554;55.796;13.090;2022-10-13T09:08:23;13.00;99.90
11003;DHT22;5554;55.796;13.090;2022-10-13T09:10:51;13.00;99.90
11003;DHT22;5554;55.796;13.090;2022-10-13T09:13:18;13.00;99.90
11003;DHT22;5554;55.796;13.090;2022-10-13T09:15:45;13.00;99.90
11003;DHT22;5554;55.796;13.090;2022-10-13T09:18:12;12.90;99.90
11003;DHT22;5554;55.796;13.090;2022-10-13T09:20:39;12.90;99.90
11003;DHT22;5554;55.796;13.090;2022-10-13T09:23:07;12.90;99.90
11003;DHT22;5554;55.796;13.090;2022-10-13T09:25:43;13.00;99.90
11003;DHT22;5554;55.796;13.090;2022-10-13T09:28:13;13.10;99.90
11003;DHT22;5554;55.796;13.090;2022-10-13T09:30:41;13.00;99.90
11003;DHT22;5554;55.796;13.090;2022-10-13T09:33:13;12.90;99.90
11003;DHT22;5554;55.796;13.090;2022-10-13T09:35:41;12.90;99.90
11003;DHT22;5554;55.796;13.090;2022-10-13T09:38:09;12.90;99.90
11003;DHT22;5554;55.796;13.090;2022-10-13T09:40:36;13.00;99.90
11003;DHT22;5554;55.796;13.090;2022-10-13T09:43:16;13.00;99.90
11003;DHT22;5554;55.796;13.090;2022-10-13T09:45:45;13.20;99.90
11003;DHT22;5554;55.796;13.090;2022-10-13T09:48:15;13.20;99.90
11003;DHT22;5554;55.796;13.090;2022-10-13T09:50:46;13.30;99.90
11003;DHT22;5554;55.796;13.090;2022-10-13T09:53:15;13.20;99.90
11003;DHT22;5554;55.796;13.090;2022-10-13T09:55:43;13.20;99.90
11003;DHT22;5554;55.796;13.090;2022-10-13T09:58:13;13.20;99.90
11003;DHT22;5554;55.796;13.090;2022-10-13T10:00:42;13.30;99.90
11003;DHT22;5554;55.796;13.090;2022-10-13T10:03:09;13.40;99.90
11003;DHT22;5554;55.796;13.090;2022-10-13T10:05:40;13.60;99.90
11003;DHT22;5554;55.796;13.090;2022-10-13T10:11:01;13.90;99.90
11003;DHT22;5554;55.796;13.090;2022-10-13T10:13:30;13.80;99.90
11003;DHT22;5554;55.796;13.090;2022-10-13T10:15:57;13.90;99.90
11003;DHT22;5554;55.796;13.090;2022-10-13T10:18:29;13.80;99.90
11003;DHT22;5554;55.796;13.090;2022-10-13T10:21:01;13.80;99.90
11003;DHT22;5554;55.796;13.090;2022-10-13T10:23:37;14.00;99.90
11003;DHT22;5554;55.796;13.090;2022-10-13T10:26:09;14.10;99.90
11003;DHT22;5554;55.796;13.090;2022-10-13T10:28:41;14.40;99.90
11003;DHT22;5554;55.796;13.090;2022-10-13T10:31:12;14.40;99.90
11003;DHT22;5554;55.796;13.090;2022-10-13T10:33:44;14.60;99.90
11003;DHT22;5554;55.796;13.090;2022-10-13T10:36:15;14.90;99.90
11003;DHT22;5554;55.796;13.090;2022-10-13T10:38:47;15.10;99.90
11003;DHT22;5554;55.796;13.090;2022-10-13T10:41:19;15.20;99.90
11003;DHT22;5554;55.796;13.090;2022-10-13T10:43:52;15.00;99.90
11003;DHT22;5554;55.796;13.090;2022-10-13T10:46:23;14.90;99.90
11003;DHT22;5554;55.796;13.090;2022-10-13T10:48:51;15.00;99.90
11003;DHT22;5554;55.796;13.090;2022-10-13T10:51:19;14.80;99.90
11003;DHT22;5554;55.796;13.090;2022-10-13T10:53:57;14.80;99.90
11003;DHT22;5554;55.796;13.090;2022-10-13T10:56:28;14.90;99.90
11003;DHT22;5554;55.796;13.090;2022-10-13T10:59:01;14.70;99.90
11003;DHT22;5554;55.796;13.090;2022-10-13T11:01:31;14.70;99.90
11003;DHT22;5554;55.796;13.090;2022-10-13T11:04:08;14.50;99.90
11003;DHT22;5554;55.796;13.090;2022-10-13T11:06:42;14.60;99.90
11003;DHT22;5554;55.796;13.090;2022-10-13T11:09:09;14.30;99.90
11003;DHT22;5554;55.796;13.090;2022-10-13T11:11:37;14.30;99.90
11003;DHT22;5554;55.796;13.090;2022-10-13T11:17:02;14.10;99.90
11003;DHT22;5554;55.796;13.090;2022-10-13T11:19:35;14.10;99.90
11003;DHT22;5554;55.796;13.090;2022-10-13T11:24:52;13.90;99.90
11003;DHT22;5554;55.796;13.090;2022-10-13T11:27:23;13.90;99.90
11003;DHT22;5554;55.796;13.090;2022-10-13T11:29:51;13.90;99.90
11003;DHT22;5554;55.796;13.090;2022-10-13T11:35:17;14.20;99.90
11003;DHT22;5554;55.796;13.090;2022-10-13T11:37:48;14.30;99.90
11003;DHT22;5554;55.796;13.090;2022-10-13T11:40:19;14.60;99.90
11003;DHT22;5554;55.796;13.090;2022-10-13T11:42:51;14.50;99.90
11003;DHT22;5554;55.796;13.090;2022-10-13T11:45:28;14.50;99.90
11003;DHT22;5554;55.796;13.090;2022-10-13T11:48:01;14.60;99.90
11003;DHT22;5554;55.796;13.090;2022-10-13T11:50:35;14.60;99.90
11003;DHT22;5554;55.796;13.090;2022-10-13T11:53:06;14.70;99.90
11003;DHT22;5554;55.796;13.090;2022-10-13T11:55:37;14.80;99.90
11003;DHT22;5554;55.796;13.090;2022-10-13T11:58:08;15.10;99.90
11003;DHT22;5554;55.796;13.090;2022-10-13T12:00:35;15.20;99.90
11003;DHT22;5554;55.796;13.090;2022-10-13T12:03:02;15.00;99.90
11003;DHT22;5554;55.796;13.090;2022-10-13T12:05:28;14.80;99.90
11003;DHT22;5554;55.796;13.090;2022-10-13T12:08:00;14.70;99.90
11003;DHT22;5554;55.796;13.090;2022-10-13T12:10:29;14.70;99.90
11003;DHT22;5554;55.796;13.090;2022-10-13T12:12:56;14.60;99.90
11003;DHT22;5554;55.796;13.090;2022-10-13T12:15:33;14.40;99.90
11003;DHT22;5554;55.796;13.090;2022-10-13T12:18:00;14.30;99.90
11003;DHT22;5554;55.796;13.090;2022-10-13T12:20:28;14.20;99.90
11003;DHT22;5554;55.796;13.090;2022-10-13T12:22:55;14.10;99.90
11003;DHT22;5554;55.796;13.090;2022-10-13T12:25:24;14.10;99.90
11003;DHT22;5554;55.796;13.090;2022-10-13T12:27:52;14.10;99.90
11003;DHT22;5554;55.796;13.090;2022-10-13T12:30:20;14.20;99.90
11003;DHT22;5554;55.796;13.090;2022-10-13T12:32:47;14.10;99.90
11003;DHT22;5554;55.796;13.090;2022-10-13T12:35:16;14.10;99.90
11003;DHT22;5554;55.796;13.090;2022-10-13T12:37:43;14.10;99.90
11003;DHT22;5554;55.796;13.090;2022-10-13T12:40:11;14.00;99.90
11003;DHT22;5554;55.796;13.090;2022-10-13T12:42:40;14.00;99.90
11003;DHT22;5554;55.796;13.090;2022-10-13T12:45:12;14.00;99.90
11003;DHT22;5554;55.796;13.090;2022-10-13T12:47:45;14.00;99.90
11003;DHT22;5554;55.796;13.090;2022-10-13T12:50:22;13.90;99.90
11003;DHT22;5554;55.796;13.090;2022-10-13T12:53:02;13.90;99.90
11003;DHT22;5554;55.796;13.090;2022-10-13T12:55:29;13.80;99.90
11003;DHT22;5554;55.796;13.090;2022-10-13T12:57:57;13.80;99.90
11003;DHT22;5554;55.796;13.090;2022-10-13T13:00:25;13.70;99.90
11003;DHT22;5554;55.796;13.090;2022-10-13T13:02:53;13.80;99.90
11003;DHT22;5554;55.796;13.090;2022-10-13T13:05:29;13.80;99.90
11003;DHT22;5554;55.796;13.090;2022-10-13T13:07:56;13.50;99.90
11003;DHT22;5554;55.796;13.090;2022-10-13T13:10:23;13.40;99.90
11003;DHT22;5554;55.796;13.090;2022-10-13T13:12:51;13.30;99.90
11003;DHT22;5554;55.796;13.090;2022-10-13T13:15:30;13.40;99.90
11003;DHT22;5554;55.796;13.090;2022-10-13T13:20:39;13.30;99.90
11003;DHT22;5554;55.796;13.090;2022-10-13T13:23:06;13.40;99.90
11003;DHT22;5554;55.796;13.090;2022-10-13T13:25:32;13.30;99.90
11003;DHT22;5554;55.796;13.090;2022-10-13T13:28:02;13.40;99.90
11003;DHT22;5554;55.796;13.090;2022-10-13T13:30:30;13.30;99.90
11003;DHT22;5554;55.796;13.090;2022-10-13T13:32:57;13.30;99.90
11003;DHT22;5554;55.796;13.090;2022-10-13T13:35:23;13.30;99.90
11003;DHT22;5554;55.796;13.090;2022-10-13T13:37:50;13.20;99.90
11003;DHT22;5554;55.796;13.090;2022-10-13T13:40:18;13.20;99.90
11003;DHT22;5554;55.796;13.090;2022-10-13T13:42:45;13.10;99.90
11003;DHT22;5554;55.796;13.090;2022-10-13T13:45:12;13.30;99.90
11003;DHT22;5554;55.796;13.090;2022-10-13T13:47:40;13.20;99.90
11003;DHT22;5554;55.796;13.090;2022-10-13T13:50:09;13.10;99.90
11003;DHT22;5554;55.796;13.090;2022-10-13T13:52:38;13.20;99.90
11003;DHT22;5554;55.796;13.090;2022-10-13T13:55:06;13.30;99.90
11003;DHT22;5554;55.796;13.090;2022-10-13T13:57:33;13.30;99.90
11003;DHT22;5554;55.796;13.090;2022-10-13T13:59:59;13.10;99.90
11003;DHT22;5554;55.796;13.090;2022-10-13T14:02:26;13.20;99.90
11003;DHT22;5554;55.796;13.090;2022-10-13T14:04:54;13.10;99.90
11003;DHT22;5554;55.796;13.090;2022-10-13T14:07:21;13.00;99.90
11003;DHT22;5554;55.796;13.090;2022-10-13T14:09:47;13.10;99.90
11003;DHT22;5554;55.796;13.090;2022-10-13T14:12:14;13.10;99.90
11003;DHT22;5554;55.796;13.090;2022-10-13T14:14:41;13.10;99.90
11003;DHT22;5554;55.796;13.090;2022-10-13T14:17:07;13.20;99.90
11003;DHT22;5554;55.796;13.090;2022-10-13T14:19:34;13.10;99.90
11003;DHT22;5554;55.796;13.090;2022-10-13T14:22:02;13.10;99.90
11003;DHT22;5554;55.796;13.090;2022-10-13T14:24:29;13.00;99.90
11003;DHT22;5554;55.796;13.090;2022-10-13T14:26:55;13.10;99.90
11003;DHT22;5554;55.796;13.090;2022-10-13T14:29:22;13.00;99.90
11003;DHT22;5554;55.796;13.090;2022-10-13T14:31:49;13.10;99.90
11003;DHT22;5554;55.796;13.090;2022-10-13T14:34:15;13.10;99.90
11003;DHT22;5554;55.796;13.090;2022-10-13T14:36:43;13.10;99.90
11003;DHT22;5554;55.796;13.090;2022-10-13T14:39:11;13.20;99.90
11003;DHT22;5554;55.796;13.090;2022-10-13T14:41:37;13.10;99.90
11003;DHT22;5554;55.796;13.090;2022-10-13T14:44:04;13.00;99.90
11003;DHT22;5554;55.796;13.090;2022-10-13T14:46:31;13.00;99.90
11003;DHT22;5554;55.796;13.090;2022-10-13T14:48:57;13.00;99.90
11003;DHT22;5554;55.796;13.090;2022-10-13T14:51:24;12.80;99.90
11003;DHT22;5554;55.796;13.090;2022-10-13T14:53:51;12.80;99.90
11003;DHT22;5554;55.796;13.090;2022-10-13T14:56:19;12.80;99.90
11003;DHT22;5554;55.796;13.090;2022-10-13T14:58:47;12.70;99.90
11003;DHT22;5554;55.796;13.090;2022-10-13T15:01:13;12.70;99.90
11003;DHT22;5554;55.796;13.090;2022-10-13T15:03:41;12.70;99.90
11003;DHT22;5554;55.796;13.090;2022-10-13T15:06:09;12.70;99.90
11003;DHT22;5554;55.796;13.090;2022-10-13T15:08:38;12.70;99.90
11003;DHT22;5554;55.796;13.090;2022-10-13T15:11:04;12.60;99.90
11003;DHT22;5554;55.796;13.090;2022-10-13T15:13:32;12.70;99.90
11003;DHT22;5554;55.796;13.090;2022-10-13T15:15:59;12.60;99.90
11003;DHT22;5554;55.796;13.090;2022-10-13T15:18:26;12.50;99.90
11003;DHT22;5554;55.796;13.090;2022-10-13T15:20:53;12.50;99.90
11003;DHT22;5554;55.796;13.090;2022-10-13T15:23:20;12.60;99.90
11003;DHT22;5554;55.796;13.090;2022-10-13T15:25:50;12.50;99.90
11003;DHT22;5554;55.796;13.090;2022-10-13T15:28:17;12.50;99.90
11003;DHT22;5554;55.796;13.090;2022-10-13T15:30:45;12.50;99.90
11003;DHT22;5554;55.796;13.090;2022-10-13T15:33:11;12.50;99.90
11003;DHT22;5554;55.796;13.090;2022-10-13T15:35:38;12.50;99.90
11003;DHT22;5554;55.796;13.090;2022-10-13T15:38:05;12.40;99.90
11003;DHT22;5554;55.796;13.090;2022-10-13T15:40:31;12.40;99.90
11003;DHT22;5554;55.796;13.090;2022-10-13T15:42:59;12.40;99.90
11003;DHT22;5554;55.796;13.090;2022-10-13T15:45:25;12.40;99.90
11003;DHT22;5554;55.796;13.090;2022-10-13T15:47:53;12.40;99.90
11003;DHT22;5554;55.796;13.090;2022-10-13T15:50:22;12.30;99.90
11003;DHT22;5554;55.796;13.090;2022-10-13T15:52:48;12.30;99.90
11003;DHT22;5554;55.796;13.090;2022-10-13T15:55:15;12.30;99.90
11003;DHT22;5554;55.796;13.090;2022-10-13T15:57:42;12.20;99.90